sensor_id;sensor_type;location;lat;lon;timestamp;P1;durP1;ratioP1;P2;durP2;ratioP2
22628;SDS011;11481;53.694;9.910;2023-08-01T00:01:37;2.08;;;1.15;;
22628;SDS011;11481;53.694;9.910;2023-08-01T00:04:04;2.67;;;1.13;;
22628;SDS011;11481;53.694;9.910;2023-08-01T00:06:31;2.38;;;1.13;;
22628;SDS011;11481;53.694;9.910;2023-08-01T00:08:57;3.00;;;1.48;;
22628;SDS011;11481;53.694;9.910;2023-08-01T00:11:24;2.45;;;1.33;;
22628;SDS011;11481;53.694;9.910;2023-08-01T00:13:51;2.63;;;1.55;;
22628;SDS011;11481;53.694;9.910;2023-08-01T00:16:17;2.63;;;1.48;;
22628;SDS011;11481;53.694;9.910;2023-08-01T00:18:44;4.30;;;1.70;;
22628;SDS011;11481;53.694;9.910;2023-08-01T00:21:11;3.33;;;1.80;;
22628;SDS011;11481;53.694;9.910;2023-08-01T00:23:37;3.08;;;1.58;;
22628;SDS011;11481;53.694;9.910;2023-08-01T00:26:04;4.13;;;1.55;;
22628;SDS011;11481;53.694;9.910;2023-08-01T00:28:31;3.75;;;1.80;;
22628;SDS011;11481;53.694;9.910;2023-08-01T00:31:01;2.55;;;1.48;;
22628;SDS011;11481;53.694;9.910;2023-08-01T00:33:32;3.03;;;1.58;;
22628;SDS011;11481;53.694;9.910;2023-08-01T00:35:59;3.13;;;1.67;;
22628;SDS011;11481;53.694;9.910;2023-08-01T00:38:26;2.50;;;1.35;;
22628;SDS011;11481;53.694;9.910;2023-08-01T00:40:53;1.70;;;1.20;;
22628;SDS011;11481;53.694;9.910;2023-08-01T00:43:19;1.80;;;1.00;;
22628;SDS011;11481;53.694;9.910;2023-08-01T00:45:46;2.22;;;1.10;;
22628;SDS011;11481;53.694;9.910;2023-08-01T00:48:13;3.97;;;1.65;;
22628;SDS011;11481;53.694;9.910;2023-08-01T00:50:40;1.98;;;1.10;;
22628;SDS011;11481;53.694;9.910;2023-08-01T00:53:07;2.38;;;1.00;;
22628;SDS011;11481;53.694;9.910;2023-08-01T00:55:34;3.17;;;1.20;;
22628;SDS011;11481;53.694;9.910;2023-08-01T00:58:01;2.10;;;1.27;;
22628;SDS011;11481;53.694;9.910;2023-08-01T01:00:28;5.43;;;1.48;;
22628;SDS011;11481;53.694;9.910;2023-08-01T01:02:55;2.58;;;1.30;;
22628;SDS011;11481;53.694;9.910;2023-08-01T01:05:22;2.30;;;1.20;;
22628;SDS011;11481;53.694;9.910;2023-08-01T01:07:51;2.75;;;1.58;;
22628;SDS011;11481;53.694;9.910;2023-08-01T01:10:18;2.85;;;1.40;;
22628;SDS011;11481;53.694;9.910;2023-08-01T01:12:45;2.45;;;1.20;;
22628;SDS011;11481;53.694;9.910;2023-08-01T01:15:13;2.65;;;1.38;;
22628;SDS011;11481;53.694;9.910;2023-08-01T01:17:40;2.35;;;1.50;;
22628;SDS011;11481;53.694;9.910;2023-08-01T01:20:07;2.53;;;1.08;;
22628;SDS011;11481;53.694;9.910;2023-08-01T01:22:33;3.28;;;1.45;;
22628;SDS011;11481;53.694;9.910;2023-08-01T01:25:02;3.20;;;1.13;;
22628;SDS011;11481;53.694;9.910;2023-08-01T01:27:31;3.75;;;1.48;;
22628;SDS011;11481;53.694;9.910;2023-08-01T01:29:59;1.90;;;1.15;;
22628;SDS011;11481;53.694;9.910;2023-08-01T01:32:27;2.22;;;1.23;;
22628;SDS011;11481;53.694;9.910;2023-08-01T01:34:55;2.00;;;1.17;;
22628;SDS011;11481;53.694;9.910;2023-08-01T01:37:22;2.22;;;1.20;;
22628;SDS011;11481;53.694;9.910;2023-08-01T01:39:48;2.10;;;1.10;;
22628;SDS011;11481;53.694;9.910;2023-08-01T01:42:15;3.08;;;1.58;;
22628;SDS011;11481;53.694;9.910;2023-08-01T01:44:42;2.50;;;1.48;;
22628;SDS011;11481;53.694;9.910;2023-08-01T01:47:08;3.35;;;1.33;;
22628;SDS011;11481;53.694;9.910;2023-08-01T01:49:35;3.38;;;1.58;;
22628;SDS011;11481;53.694;9.910;2023-08-01T01:52:01;3.20;;;1.65;;
22628;SDS011;11481;53.694;9.910;2023-08-01T01:54:29;3.42;;;1.88;;
22628;SDS011;11481;53.694;9.910;2023-08-01T01:56:56;5.60;;;2.20;;
22628;SDS011;11481;53.694;9.910;2023-08-01T01:59:22;3.35;;;1.75;;
22628;SDS011;11481;53.694;9.910;2023-08-01T02:01:49;4.18;;;2.30;;
22628;SDS011;11481;53.694;9.910;2023-08-01T02:04:16;4.18;;;1.95;;
22628;SDS011;11481;53.694;9.910;2023-08-01T02:06:42;4.53;;;2.58;;
22628;SDS011;11481;53.694;9.910;2023-08-01T02:09:09;4.85;;;2.67;;
22628;SDS011;11481;53.694;9.910;2023-08-01T02:11:35;5.90;;;3.10;;
22628;SDS011;11481;53.694;9.910;2023-08-01T02:14:02;6.03;;;2.70;;
22628;SDS011;11481;53.694;9.910;2023-08-01T02:16:29;7.32;;;3.47;;
22628;SDS011;11481;53.694;9.910;2023-08-01T02:18:56;6.97;;;3.72;;
22628;SDS011;11481;53.694;9.910;2023-08-01T02:21:23;6.18;;;3.78;;
22628;SDS011;11481;53.694;9.910;2023-08-01T02:23:49;6.60;;;3.58;;
22628;SDS011;11481;53.694;9.910;2023-08-01T02:26:16;7.55;;;4.78;;
22628;SDS011;11481;53.694;9.910;2023-08-01T02:28:42;7.95;;;5.03;;
22628;SDS011;11481;53.694;9.910;2023-08-01T02:31:09;9.43;;;5.40;;
22628;SDS011;11481;53.694;9.910;2023-08-01T02:33:37;11.60;;;5.75;;
22628;SDS011;11481;53.694;9.910;2023-08-01T02:36:04;10.10;;;5.78;;
22628;SDS011;11481;53.694;9.910;2023-08-01T02:38:31;12.38;;;6.70;;
22628;SDS011;11481;53.694;9.910;2023-08-01T02:40:58;10.88;;;6.00;;
22628;SDS011;11481;53.694;9.910;2023-08-01T02:43:24;15.52;;;6.63;;
22628;SDS011;11481;53.694;9.910;2023-08-01T02:45:52;10.43;;;5.88;;
22628;SDS011;11481;53.694;9.910;2023-08-01T02:48:19;13.95;;;6.93;;
22628;SDS011;11481;53.694;9.910;2023-08-01T02:50:45;12.30;;;6.60;;
22628;SDS011;11481;53.694;9.910;2023-08-01T02:53:13;12.43;;;6.50;;
22628;SDS011;11481;53.694;9.910;2023-08-01T02:55:39;14.23;;;8.07;;
22628;SDS011;11481;53.694;9.910;2023-08-01T02:58:06;14.52;;;8.75;;
22628;SDS011;11481;53.694;9.910;2023-08-01T03:00:33;16.52;;;9.35;;
22628;SDS011;11481;53.694;9.910;2023-08-01T03:03:05;13.25;;;7.55;;
22628;SDS011;11481;53.694;9.910;2023-08-01T03:05:35;16.35;;;9.43;;
22628;SDS011;11481;53.694;9.910;2023-08-01T03:08:05;16.95;;;8.60;;
22628;SDS011;11481;53.694;9.910;2023-08-01T03:10:31;16.42;;;8.88;;
22628;SDS011;11481;53.694;9.910;2023-08-01T03:13:02;18.60;;;9.40;;
22628;SDS011;11481;53.694;9.910;2023-08-01T03:15:29;14.20;;;8.75;;
22628;SDS011;11481;53.694;9.910;2023-08-01T03:17:56;15.30;;;8.32;;
22628;SDS011;11481;53.694;9.910;2023-08-01T03:20:23;15.70;;;8.65;;
22628;SDS011;11481;53.694;9.910;2023-08-01T03:22:50;16.20;;;8.52;;
22628;SDS011;11481;53.694;9.910;2023-08-01T03:25:16;16.35;;;9.23;;
22628;SDS011;11481;53.694;9.910;2023-08-01T03:27:43;16.67;;;9.50;;
22628;SDS011;11481;53.694;9.910;2023-08-01T03:30:10;16.67;;;8.35;;
22628;SDS011;11481;53.694;9.910;2023-08-01T03:32:37;19.10;;;10.25;;
22628;SDS011;11481;53.694;9.910;2023-08-01T03:35:04;19.38;;;8.80;;
22628;SDS011;11481;53.694;9.910;2023-08-01T03:37:31;17.73;;;9.73;;
22628;SDS011;11481;53.694;9.910;2023-08-01T03:39:58;17.35;;;9.27;;
22628;SDS011;11481;53.694;9.910;2023-08-01T03:42:24;17.67;;;9.75;;
22628;SDS011;11481;53.694;9.910;2023-08-01T03:44:51;16.38;;;8.93;;
22628;SDS011;11481;53.694;9.910;2023-08-01T03:47:18;20.90;;;10.07;;
22628;SDS011;11481;53.694;9.910;2023-08-01T03:49:44;19.65;;;10.55;;
22628;SDS011;11481;53.694;9.910;2023-08-01T03:52:11;18.17;;;9.70;;
22628;SDS011;11481;53.694;9.910;2023-08-01T03:54:37;30.98;;;10.63;;
22628;SDS011;11481;53.694;9.910;2023-08-01T03:57:04;22.40;;;10.85;;
22628;SDS011;11481;53.694;9.910;2023-08-01T03:59:31;16.15;;;9.57;;
22628;SDS011;11481;53.694;9.910;2023-08-01T04:01:58;18.33;;;11.23;;
22628;SDS011;11481;53.694;9.910;2023-08-01T04:04:24;20.48;;;10.50;;
22628;SDS011;11481;53.694;9.910;2023-08-01T04:06:51;22.75;;;10.80;;
22628;SDS011;11481;53.694;9.910;2023-08-01T04:09:17;18.00;;;9.70;;
22628;SDS011;11481;53.694;9.910;2023-08-01T04:11:44;21.08;;;10.50;;
22628;SDS011;11481;53.694;9.910;2023-08-01T04:14:11;18.48;;;10.10;;
22628;SDS011;11481;53.694;9.910;2023-08-01T04:16:37;18.27;;;9.90;;
22628;SDS011;11481;53.694;9.910;2023-08-01T04:19:05;21.95;;;11.32;;
22628;SDS011;11481;53.694;9.910;2023-08-01T04:21:31;21.77;;;11.10;;
22628;SDS011;11481;53.694;9.910;2023-08-01T04:23:58;19.67;;;10.48;;
22628;SDS011;11481;53.694;9.910;2023-08-01T04:26:24;20.25;;;10.32;;
22628;SDS011;11481;53.694;9.910;2023-08-01T04:28:51;17.77;;;10.38;;
22628;SDS011;11481;53.694;9.910;2023-08-01T04:31:18;21.55;;;10.38;;
22628;SDS011;11481;53.694;9.910;2023-08-01T04:33:45;18.60;;;11.07;;
22628;SDS011;11481;53.694;9.910;2023-08-01T04:36:11;23.35;;;10.15;;
22628;SDS011;11481;53.694;9.910;2023-08-01T04:38:38;21.33;;;11.00;;
22628;SDS011;11481;53.694;9.910;2023-08-01T04:41:05;17.95;;;10.27;;
22628;SDS011;11481;53.694;9.910;2023-08-01T04:43:31;24.58;;;10.45;;
22628;SDS011;11481;53.694;9.910;2023-08-01T04:45:58;18.02;;;9.52;;
22628;SDS011;11481;53.694;9.910;2023-08-01T04:48:25;17.02;;;10.52;;
22628;SDS011;11481;53.694;9.910;2023-08-01T04:50:51;21.08;;;9.98;;
22628;SDS011;11481;53.694;9.910;2023-08-01T04:53:18;21.23;;;10.50;;
22628;SDS011;11481;53.694;9.910;2023-08-01T04:55:44;14.55;;;9.00;;
22628;SDS011;11481;53.694;9.910;2023-08-01T04:58:11;18.25;;;9.70;;
22628;SDS011;11481;53.694;9.910;2023-08-01T05:00:38;17.05;;;9.68;;
22628;SDS011;11481;53.694;9.910;2023-08-01T05:03:07;20.65;;;9.43;;
22628;SDS011;11481;53.694;9.910;2023-08-01T05:05:34;18.90;;;8.98;;
22628;SDS011;11481;53.694;9.910;2023-08-01T05:08:00;16.15;;;8.45;;
22628;SDS011;11481;53.694;9.910;2023-08-01T05:10:27;18.80;;;9.40;;
22628;SDS011;11481;53.694;9.910;2023-08-01T05:12:54;16.13;;;9.20;;
22628;SDS011;11481;53.694;9.910;2023-08-01T05:15:20;16.30;;;9.35;;
22628;SDS011;11481;53.694;9.910;2023-08-01T05:17:47;21.30;;;10.82;;
22628;SDS011;11481;53.694;9.910;2023-08-01T05:20:14;20.17;;;9.38;;
22628;SDS011;11481;53.694;9.910;2023-08-01T05:22:41;16.58;;;9.70;;
22628;SDS011;11481;53.694;9.910;2023-08-01T05:25:07;17.02;;;8.98;;
22628;SDS011;11481;53.694;9.910;2023-08-01T05:27:34;19.55;;;10.25;;
22628;SDS011;11481;53.694;9.910;2023-08-01T05:30:01;20.15;;;9.35;;
22628;SDS011;11481;53.694;9.910;2023-08-01T05:32:27;17.42;;;8.88;;
22628;SDS011;11481;53.694;9.910;2023-08-01T05:34:54;16.50;;;8.07;;
22628;SDS011;11481;53.694;9.910;2023-08-01T05:37:21;16.08;;;8.35;;
22628;SDS011;11481;53.694;9.910;2023-08-01T05:39:48;20.40;;;8.30;;
22628;SDS011;11481;53.694;9.910;2023-08-01T05:42:14;17.45;;;9.02;;
22628;SDS011;11481;53.694;9.910;2023-08-01T05:44:41;14.77;;;8.02;;
22628;SDS011;11481;53.694;9.910;2023-08-01T05:47:07;12.98;;;7.55;;
22628;SDS011;11481;53.694;9.910;2023-08-01T05:49:34;14.02;;;7.25;;
22628;SDS011;11481;53.694;9.910;2023-08-01T05:52:01;13.70;;;7.35;;
22628;SDS011;11481;53.694;9.910;2023-08-01T05:54:27;10.80;;;6.75;;
22628;SDS011;11481;53.694;9.910;2023-08-01T05:56:54;15.02;;;7.75;;
22628;SDS011;11481;53.694;9.910;2023-08-01T05:59:21;13.15;;;6.93;;
22628;SDS011;11481;53.694;9.910;2023-08-01T06:01:48;17.10;;;7.10;;
22628;SDS011;11481;53.694;9.910;2023-08-01T06:04:14;11.90;;;6.18;;
22628;SDS011;11481;53.694;9.910;2023-08-01T06:06:41;15.40;;;7.35;;
22628;SDS011;11481;53.694;9.910;2023-08-01T06:09:09;12.15;;;5.88;;
22628;SDS011;11481;53.694;9.910;2023-08-01T06:11:35;10.80;;;5.95;;
22628;SDS011;11481;53.694;9.910;2023-08-01T06:14:02;10.43;;;6.00;;
22628;SDS011;11481;53.694;9.910;2023-08-01T06:16:29;12.27;;;6.13;;
22628;SDS011;11481;53.694;9.910;2023-08-01T06:18:56;12.27;;;5.78;;
22628;SDS011;11481;53.694;9.910;2023-08-01T06:21:25;12.80;;;5.90;;
22628;SDS011;11481;53.694;9.910;2023-08-01T06:23:51;18.80;;;6.30;;
22628;SDS011;11481;53.694;9.910;2023-08-01T06:26:18;12.27;;;6.38;;
22628;SDS011;11481;53.694;9.910;2023-08-01T06:28:45;11.20;;;5.45;;
22628;SDS011;11481;53.694;9.910;2023-08-01T06:31:11;10.93;;;5.15;;
22628;SDS011;11481;53.694;9.910;2023-08-01T06:33:39;9.80;;;4.95;;
22628;SDS011;11481;53.694;9.910;2023-08-01T06:36:06;9.40;;;4.65;;
22628;SDS011;11481;53.694;9.910;2023-08-01T06:38:33;7.97;;;4.32;;
22628;SDS011;11481;53.694;9.910;2023-08-01T06:41:00;10.35;;;4.15;;
22628;SDS011;11481;53.694;9.910;2023-08-01T06:43:26;7.90;;;4.40;;
22628;SDS011;11481;53.694;9.910;2023-08-01T06:45:53;9.85;;;4.75;;
22628;SDS011;11481;53.694;9.910;2023-08-01T06:48:20;13.45;;;4.28;;
22628;SDS011;11481;53.694;9.910;2023-08-01T06:50:46;7.55;;;4.25;;
22628;SDS011;11481;53.694;9.910;2023-08-01T06:53:13;8.77;;;4.30;;
22628;SDS011;11481;53.694;9.910;2023-08-01T06:55:39;10.88;;;4.72;;
22628;SDS011;11481;53.694;9.910;2023-08-01T06:58:06;8.68;;;3.75;;
22628;SDS011;11481;53.694;9.910;2023-08-01T07:00:33;10.73;;;4.40;;
22628;SDS011;11481;53.694;9.910;2023-08-01T07:03:00;10.43;;;4.07;;
22628;SDS011;11481;53.694;9.910;2023-08-01T07:05:26;8.23;;;3.70;;
22628;SDS011;11481;53.694;9.910;2023-08-01T07:07:53;11.45;;;4.10;;
22628;SDS011;11481;53.694;9.910;2023-08-01T07:10:20;10.82;;;4.28;;
22628;SDS011;11481;53.694;9.910;2023-08-01T07:12:46;7.18;;;3.80;;
22628;SDS011;11481;53.694;9.910;2023-08-01T07:15:14;7.78;;;3.70;;
22628;SDS011;11481;53.694;9.910;2023-08-01T07:17:41;6.63;;;3.65;;
22628;SDS011;11481;53.694;9.910;2023-08-01T07:20:07;9.02;;;4.03;;
22628;SDS011;11481;53.694;9.910;2023-08-01T07:22:35;7.60;;;3.97;;
22628;SDS011;11481;53.694;9.910;2023-08-01T07:25:02;7.80;;;4.22;;
22628;SDS011;11481;53.694;9.910;2023-08-01T07:27:29;11.00;;;3.92;;
22628;SDS011;11481;53.694;9.910;2023-08-01T07:29:55;7.40;;;3.40;;
22628;SDS011;11481;53.694;9.910;2023-08-01T07:32:24;7.50;;;3.72;;
22628;SDS011;11481;53.694;9.910;2023-08-01T07:34:50;8.85;;;2.92;;
22628;SDS011;11481;53.694;9.910;2023-08-01T07:37:17;8.32;;;3.35;;
22628;SDS011;11481;53.694;9.910;2023-08-01T07:39:44;10.07;;;3.53;;
22628;SDS011;11481;53.694;9.910;2023-08-01T07:42:10;8.98;;;3.40;;
22628;SDS011;11481;53.694;9.910;2023-08-01T07:44:37;6.85;;;3.22;;
22628;SDS011;11481;53.694;9.910;2023-08-01T07:47:04;7.25;;;3.05;;
22628;SDS011;11481;53.694;9.910;2023-08-01T07:49:30;13.35;;;3.95;;
22628;SDS011;11481;53.694;9.910;2023-08-01T07:51:57;11.02;;;4.60;;
22628;SDS011;11481;53.694;9.910;2023-08-01T07:54:24;5.78;;;3.50;;
22628;SDS011;11481;53.694;9.910;2023-08-01T07:56:51;9.13;;;3.83;;
22628;SDS011;11481;53.694;9.910;2023-08-01T07:59:18;8.88;;;4.38;;
22628;SDS011;11481;53.694;9.910;2023-08-01T08:01:44;10.38;;;4.55;;
22628;SDS011;11481;53.694;9.910;2023-08-01T08:04:13;12.02;;;4.38;;
22628;SDS011;11481;53.694;9.910;2023-08-01T08:06:40;10.30;;;3.97;;
22628;SDS011;11481;53.694;9.910;2023-08-01T08:09:07;9.40;;;3.92;;
22628;SDS011;11481;53.694;9.910;2023-08-01T08:11:34;10.02;;;4.53;;
22628;SDS011;11481;53.694;9.910;2023-08-01T08:14:01;9.75;;;3.50;;
22628;SDS011;11481;53.694;9.910;2023-08-01T08:16:27;10.38;;;4.03;;
22628;SDS011;11481;53.694;9.910;2023-08-01T08:18:54;7.00;;;3.72;;
22628;SDS011;11481;53.694;9.910;2023-08-01T08:21:21;5.07;;;3.10;;
22628;SDS011;11481;53.694;9.910;2023-08-01T08:23:48;7.50;;;4.18;;
22628;SDS011;11481;53.694;9.910;2023-08-01T08:26:14;9.18;;;3.70;;
22628;SDS011;11481;53.694;9.910;2023-08-01T08:28:41;8.27;;;3.72;;
22628;SDS011;11481;53.694;9.910;2023-08-01T08:31:08;6.20;;;3.10;;
22628;SDS011;11481;53.694;9.910;2023-08-01T08:33:37;9.65;;;2.97;;
22628;SDS011;11481;53.694;9.910;2023-08-01T08:36:04;9.07;;;3.72;;
22628;SDS011;11481;53.694;9.910;2023-08-01T08:38:31;5.70;;;2.92;;
22628;SDS011;11481;53.694;9.910;2023-08-01T08:41:01;6.15;;;3.00;;
22628;SDS011;11481;53.694;9.910;2023-08-01T08:43:38;5.82;;;3.03;;
22628;SDS011;11481;53.694;9.910;2023-08-01T08:46:05;6.75;;;2.83;;
22628;SDS011;11481;53.694;9.910;2023-08-01T08:48:34;7.63;;;2.95;;
22628;SDS011;11481;53.694;9.910;2023-08-01T08:51:03;5.93;;;3.38;;
22628;SDS011;11481;53.694;9.910;2023-08-01T08:53:32;9.88;;;3.03;;
22628;SDS011;11481;53.694;9.910;2023-08-01T08:56:01;8.23;;;2.83;;
22628;SDS011;11481;53.694;9.910;2023-08-01T08:58:31;8.70;;;3.13;;
22628;SDS011;11481;53.694;9.910;2023-08-01T09:00:59;6.90;;;3.28;;
22628;SDS011;11481;53.694;9.910;2023-08-01T09:03:28;8.40;;;3.33;;
22628;SDS011;11481;53.694;9.910;2023-08-01T09:06:09;7.35;;;2.90;;
22628;SDS011;11481;53.694;9.910;2023-08-01T09:08:40;5.90;;;2.38;;
22628;SDS011;11481;53.694;9.910;2023-08-01T09:11:16;6.25;;;2.65;;
22628;SDS011;11481;53.694;9.910;2023-08-01T09:13:42;6.45;;;2.45;;
22628;SDS011;11481;53.694;9.910;2023-08-01T09:16:09;6.18;;;2.35;;
22628;SDS011;11481;53.694;9.910;2023-08-01T09:18:46;4.35;;;2.40;;
22628;SDS011;11481;53.694;9.910;2023-08-01T09:21:13;4.78;;;2.45;;
22628;SDS011;11481;53.694;9.910;2023-08-01T09:23:40;3.67;;;2.13;;
22628;SDS011;11481;53.694;9.910;2023-08-01T09:26:16;4.28;;;2.30;;
22628;SDS011;11481;53.694;9.910;2023-08-01T09:28:55;6.47;;;2.38;;
22628;SDS011;11481;53.694;9.910;2023-08-01T09:31:26;5.72;;;2.38;;
22628;SDS011;11481;53.694;9.910;2023-08-01T09:33:57;4.65;;;2.42;;
22628;SDS011;11481;53.694;9.910;2023-08-01T09:36:25;6.05;;;2.97;;
22628;SDS011;11481;53.694;9.910;2023-08-01T09:38:57;5.10;;;2.78;;
22628;SDS011;11481;53.694;9.910;2023-08-01T09:41:25;5.38;;;2.83;;
22628;SDS011;11481;53.694;9.910;2023-08-01T09:43:54;7.07;;;3.35;;
22628;SDS011;11481;53.694;9.910;2023-08-01T09:46:21;7.00;;;2.90;;
22628;SDS011;11481;53.694;9.910;2023-08-01T09:48:47;5.65;;;3.10;;
22628;SDS011;11481;53.694;9.910;2023-08-01T09:51:15;6.47;;;2.92;;
22628;SDS011;11481;53.694;9.910;2023-08-01T09:53:47;6.85;;;2.40;;
22628;SDS011;11481;53.694;9.910;2023-08-01T09:56:19;5.10;;;2.47;;
22628;SDS011;11481;53.694;9.910;2023-08-01T09:58:49;6.07;;;2.80;;
22628;SDS011;11481;53.694;9.910;2023-08-01T10:01:18;4.85;;;2.80;;
22628;SDS011;11481;53.694;9.910;2023-08-01T10:03:46;5.35;;;2.50;;
22628;SDS011;11481;53.694;9.910;2023-08-01T10:06:22;5.18;;;2.00;;
22628;SDS011;11481;53.694;9.910;2023-08-01T10:08:51;4.47;;;2.42;;
22628;SDS011;11481;53.694;9.910;2023-08-01T10:11:19;5.95;;;2.58;;
22628;SDS011;11481;53.694;9.910;2023-08-01T10:13:49;5.55;;;1.83;;
22628;SDS011;11481;53.694;9.910;2023-08-01T10:16:16;3.38;;;1.80;;
22628;SDS011;11481;53.694;9.910;2023-08-01T10:18:43;5.30;;;1.90;;
22628;SDS011;11481;53.694;9.910;2023-08-01T10:21:14;5.47;;;1.67;;
22628;SDS011;11481;53.694;9.910;2023-08-01T10:23:42;3.20;;;1.55;;
22628;SDS011;11481;53.694;9.910;2023-08-01T10:26:11;6.82;;;1.92;;
22628;SDS011;11481;53.694;9.910;2023-08-01T10:28:39;3.83;;;1.60;;
22628;SDS011;11481;53.694;9.910;2023-08-01T10:31:11;4.57;;;1.50;;
22628;SDS011;11481;53.694;9.910;2023-08-01T10:33:40;2.53;;;1.27;;
22628;SDS011;11481;53.694;9.910;2023-08-01T10:36:17;3.45;;;1.30;;
22628;SDS011;11481;53.694;9.910;2023-08-01T10:38:49;3.20;;;1.50;;
22628;SDS011;11481;53.694;9.910;2023-08-01T10:41:26;4.32;;;1.40;;
22628;SDS011;11481;53.694;9.910;2023-08-01T10:44:07;4.13;;;1.10;;
22628;SDS011;11481;53.694;9.910;2023-08-01T10:46:48;4.35;;;1.30;;
22628;SDS011;11481;53.694;9.910;2023-08-01T10:49:16;3.95;;;1.48;;
22628;SDS011;11481;53.694;9.910;2023-08-01T10:51:44;3.58;;;1.58;;
22628;SDS011;11481;53.694;9.910;2023-08-01T10:54:24;6.63;;;1.55;;
22628;SDS011;11481;53.694;9.910;2023-08-01T10:56:52;3.58;;;1.33;;
22628;SDS011;11481;53.694;9.910;2023-08-01T10:59:22;4.40;;;1.20;;
22628;SDS011;11481;53.694;9.910;2023-08-01T11:01:51;2.65;;;0.90;;
22628;SDS011;11481;53.694;9.910;2023-08-01T11:04:20;2.55;;;0.80;;
22628;SDS011;11481;53.694;9.910;2023-08-01T11:06:48;1.58;;;0.70;;
22628;SDS011;11481;53.694;9.910;2023-08-01T11:09:20;2.05;;;0.70;;
22628;SDS011;11481;53.694;9.910;2023-08-01T11:11:51;1.95;;;0.80;;
22628;SDS011;11481;53.694;9.910;2023-08-01T11:14:22;3.60;;;1.00;;
22628;SDS011;11481;53.694;9.910;2023-08-01T11:16:54;2.88;;;0.80;;
22628;SDS011;11481;53.694;9.910;2023-08-01T11:19:24;1.92;;;0.60;;
22628;SDS011;11481;53.694;9.910;2023-08-01T11:21:57;1.17;;;0.73;;
22628;SDS011;11481;53.694;9.910;2023-08-01T11:24:25;1.23;;;0.63;;
22628;SDS011;11481;53.694;9.910;2023-08-01T11:26:53;2.38;;;0.70;;
22628;SDS011;11481;53.694;9.910;2023-08-01T11:29:20;4.18;;;0.60;;
22628;SDS011;11481;53.694;9.910;2023-08-01T11:31:55;1.02;;;0.43;;
22628;SDS011;11481;53.694;9.910;2023-08-01T11:34:24;0.95;;;0.40;;
22628;SDS011;11481;53.694;9.910;2023-08-01T11:36:51;0.20;;;0.20;;
22628;SDS011;11481;53.694;9.910;2023-08-01T11:39:19;1.80;;;0.30;;
22628;SDS011;11481;53.694;9.910;2023-08-01T11:41:48;1.27;;;0.30;;
22628;SDS011;11481;53.694;9.910;2023-08-01T11:44:15;0.52;;;0.38;;
22628;SDS011;11481;53.694;9.910;2023-08-01T11:46:41;2.15;;;0.50;;
22628;SDS011;11481;53.694;9.910;2023-08-01T11:49:10;0.90;;;0.40;;
22628;SDS011;11481;53.694;9.910;2023-08-01T11:51:41;0.50;;;0.30;;
22628;SDS011;11481;53.694;9.910;2023-08-01T11:54:10;2.28;;;0.50;;
22628;SDS011;11481;53.694;9.910;2023-08-01T11:56:40;2.10;;;0.50;;
22628;SDS011;11481;53.694;9.910;2023-08-01T11:59:11;0.52;;;0.40;;
22628;SDS011;11481;53.694;9.910;2023-08-01T12:01:39;0.90;;;0.50;;
22628;SDS011;11481;53.694;9.910;2023-08-01T12:04:06;2.38;;;0.50;;
22628;SDS011;11481;53.694;9.910;2023-08-01T12:06:33;1.00;;;0.50;;
22628;SDS011;11481;53.694;9.910;2023-08-01T12:09:11;1.00;;;0.52;;
22628;SDS011;11481;53.694;9.910;2023-08-01T12:11:39;1.85;;;0.60;;
22628;SDS011;11481;53.694;9.910;2023-08-01T12:14:07;1.63;;;0.47;;
22628;SDS011;11481;53.694;9.910;2023-08-01T12:16:41;0.60;;;0.40;;
22628;SDS011;11481;53.694;9.910;2023-08-01T12:19:18;1.35;;;0.77;;
22628;SDS011;11481;53.694;9.910;2023-08-01T12:21:47;1.25;;;0.50;;
22628;SDS011;11481;53.694;9.910;2023-08-01T12:24:14;1.05;;;0.60;;
22628;SDS011;11481;53.694;9.910;2023-08-01T12:26:41;2.85;;;0.55;;
22628;SDS011;11481;53.694;9.910;2023-08-01T12:29:08;1.60;;;0.73;;
22628;SDS011;11481;53.694;9.910;2023-08-01T12:31:35;1.13;;;0.50;;
22628;SDS011;11481;53.694;9.910;2023-08-01T12:34:02;1.33;;;0.60;;
22628;SDS011;11481;53.694;9.910;2023-08-01T12:36:29;1.17;;;0.60;;
22628;SDS011;11481;53.694;9.910;2023-08-01T12:38:58;2.40;;;0.60;;
22628;SDS011;11481;53.694;9.910;2023-08-01T12:41:25;1.02;;;0.50;;
22628;SDS011;11481;53.694;9.910;2023-08-01T12:43:52;2.25;;;0.70;;
22628;SDS011;11481;53.694;9.910;2023-08-01T12:46:18;1.45;;;0.75;;
22628;SDS011;11481;53.694;9.910;2023-08-01T12:48:45;0.80;;;0.68;;
22628;SDS011;11481;53.694;9.910;2023-08-01T12:51:12;1.50;;;0.70;;
22628;SDS011;11481;53.694;9.910;2023-08-01T12:53:41;3.20;;;0.85;;
22628;SDS011;11481;53.694;9.910;2023-08-01T12:56:07;3.03;;;0.90;;
22628;SDS011;11481;53.694;9.910;2023-08-01T12:58:36;1.15;;;0.60;;
22628;SDS011;11481;53.694;9.910;2023-08-01T13:01:03;2.63;;;0.90;;
22628;SDS011;11481;53.694;9.910;2023-08-01T13:03:30;1.35;;;0.70;;
22628;SDS011;11481;53.694;9.910;2023-08-01T13:05:59;2.53;;;0.90;;
22628;SDS011;11481;53.694;9.910;2023-08-01T13:08:25;1.23;;;0.57;;
22628;SDS011;11481;53.694;9.910;2023-08-01T13:10:52;0.93;;;0.40;;
22628;SDS011;11481;53.694;9.910;2023-08-01T13:13:19;0.85;;;0.30;;
22628;SDS011;11481;53.694;9.910;2023-08-01T13:15:45;0.85;;;0.40;;
22628;SDS011;11481;53.694;9.910;2023-08-01T13:18:12;0.60;;;0.40;;
22628;SDS011;11481;53.694;9.910;2023-08-01T13:20:40;0.35;;;0.28;;
22628;SDS011;11481;53.694;9.910;2023-08-01T13:23:07;1.88;;;0.40;;
22628;SDS011;11481;53.694;9.910;2023-08-01T13:25:35;1.02;;;0.35;;
22628;SDS011;11481;53.694;9.910;2023-08-01T13:28:02;0.60;;;0.50;;
22628;SDS011;11481;53.694;9.910;2023-08-01T13:30:29;0.95;;;0.60;;
22628;SDS011;11481;53.694;9.910;2023-08-01T13:32:56;2.47;;;0.70;;
22628;SDS011;11481;53.694;9.910;2023-08-01T13:35:23;1.85;;;0.50;;
22628;SDS011;11481;53.694;9.910;2023-08-01T13:37:49;2.67;;;0.77;;
22628;SDS011;11481;53.694;9.910;2023-08-01T13:40:16;1.40;;;0.63;;
22628;SDS011;11481;53.694;9.910;2023-08-01T13:42:44;3.70;;;0.73;;
22628;SDS011;11481;53.694;9.910;2023-08-01T13:45:11;2.90;;;0.60;;
22628;SDS011;11481;53.694;9.910;2023-08-01T13:47:37;2.85;;;0.70;;
22628;SDS011;11481;53.694;9.910;2023-08-01T13:50:04;2.10;;;0.70;;
22628;SDS011;11481;53.694;9.910;2023-08-01T13:52:31;3.03;;;1.10;;
22628;SDS011;11481;53.694;9.910;2023-08-01T13:54:58;2.83;;;0.90;;
22628;SDS011;11481;53.694;9.910;2023-08-01T13:57:25;1.55;;;0.90;;
22628;SDS011;11481;53.694;9.910;2023-08-01T13:59:52;0.85;;;0.70;;
22628;SDS011;11481;53.694;9.910;2023-08-01T14:02:35;3.08;;;1.20;;
22628;SDS011;11481;53.694;9.910;2023-08-01T14:05:02;2.92;;;0.93;;
22628;SDS011;11481;53.694;9.910;2023-08-01T14:07:29;1.40;;;0.90;;
22628;SDS011;11481;53.694;9.910;2023-08-01T14:09:56;2.35;;;0.90;;
22628;SDS011;11481;53.694;9.910;2023-08-01T14:12:23;1.48;;;0.85;;
22628;SDS011;11481;53.694;9.910;2023-08-01T14:14:50;1.85;;;0.80;;
22628;SDS011;11481;53.694;9.910;2023-08-01T14:17:17;2.55;;;0.63;;
22628;SDS011;11481;53.694;9.910;2023-08-01T14:19:44;1.48;;;0.50;;
22628;SDS011;11481;53.694;9.910;2023-08-01T14:22:10;1.30;;;0.75;;
22628;SDS011;11481;53.694;9.910;2023-08-01T14:24:37;3.08;;;0.80;;
22628;SDS011;11481;53.694;9.910;2023-08-01T14:27:04;1.00;;;0.40;;
22628;SDS011;11481;53.694;9.910;2023-08-01T14:29:31;0.60;;;0.40;;
22628;SDS011;11481;53.694;9.910;2023-08-01T14:31:57;0.50;;;0.45;;
22628;SDS011;11481;53.694;9.910;2023-08-01T14:34:24;0.82;;;0.57;;
22628;SDS011;11481;53.694;9.910;2023-08-01T14:36:50;1.88;;;0.65;;
22628;SDS011;11481;53.694;9.910;2023-08-01T14:39:17;0.60;;;0.45;;
22628;SDS011;11481;53.694;9.910;2023-08-01T14:41:48;2.05;;;0.60;;
22628;SDS011;11481;53.694;9.910;2023-08-01T14:44:18;1.33;;;0.60;;
22628;SDS011;11481;53.694;9.910;2023-08-01T14:46:45;1.20;;;0.55;;